Time;durP1;ratioP1;P1;durP2;ratioP2;P2;SDS_P1;SDS_P2;PMS_P1;PMS_P2;Temp;Humidity;BMP_temperature;BMP_pressure;BME280_temperature;BME280_humidity;BME280_pressure;Samples;Min_cycle;Max_cycle;Signal;HPM_P1;HPM_P2
2021/05/03 00:02:12;;;;;;;5.32;2.42;;;;;;;;;;5117577;28;20106;-83
2021/05/03 00:04:38;;;;;;;4.03;2.20;;;;;;;;;;5117644;28;20055;-84
2021/05/03 00:07:04;;;;;;;2.20;1.90;;;;;;;;;;5116537;28;20380;-83
2021/05/03 00:09:31;;;;;;;3.35;2.22;;;;;;;;;;5117471;28;20032;-83
2021/05/03 00:11:57;;;;;;;2.75;2.00;;;;;;;;;;5117718;28;20099;-84
2021/05/03 00:14:23;;;;;;;3.42;2.28;;;;;;;;;;5116447;28;20027;-84
2021/05/03 00:16:49;;;;;;;2.60;2.40;;;;;;;;;;5117320;28;20414;-85
2021/05/03 00:19:15;;;;;;;3.28;2.38;;;;;;;;;;5117444;28;20459;-84
2021/05/03 00:21:41;;;;;;;3.22;1.98;;;;;;;;;;5117720;28;20027;-84
2021/05/03 00:24:08;;;;;;;4.50;2.80;;;;;;;;;;5117746;28;20031;-84
2021/05/03 00:26:34;;;;;;;2.67;2.47;;;;;;;;;;5117409;28;20023;-84
2021/05/03 00:29:00;;;;;;;3.22;2.50;;;;;;;;;;5117799;28;20186;-84
2021/05/03 00:31:44;;;;;;;3.35;2.40;;;;;;;;;;5117441;28;20356;-84
2021/05/03 00:34:10;;;;;;;2.70;2.40;;;;;;;;;;5116378;28;20051;-84
2021/05/03 00:36:36;;;;;;;3.60;2.33;;;;;;;;;;5118357;28;20409;-85
2021/05/03 00:39:04;;;;;;;2.78;2.30;;;;;;;;;;5120623;28;20128;-84
2021/05/03 00:41:30;;;;;;;2.80;2.25;;;;;;;;;;5121042;28;20016;-83
2021/05/03 00:43:56;;;;;;;2.58;2.38;;;;;;;;;;5120792;28;20454;-84
2021/05/03 00:46:23;;;;;;;3.25;2.45;;;;;;;;;;5119826;28;20028;-84
2021/05/03 00:48:49;;;;;;;3.45;3.15;;;;;;;;;;5120856;28;20050;-84
2021/05/03 00:51:16;;;;;;;3.30;2.80;;;;;;;;;;5119878;28;20027;-84
2021/05/03 00:53:42;;;;;;;2.97;2.60;;;;;;;;;;5121141;28;20024;-84
2021/05/03 00:56:08;;;;;;;3.50;2.90;;;;;;;;;;5121067;28;20028;-83
2021/05/03 00:58:35;;;;;;;4.55;2.70;;;;;;;;;;5120595;28;20051;-85
2021/05/03 01:01:02;;;;;;;2.78;2.45;;;;;;;;;;5120588;28;20023;-83
2021/05/03 01:03:28;;;;;;;3.08;2.78;;;;;;;;;;5120622;28;20020;-83
2021/05/03 01:05:54;;;;;;;3.58;2.58;;;;;;;;;;5120830;28;20015;-84
2021/05/03 01:08:20;;;;;;;2.85;2.60;;;;;;;;;;5120572;28;20031;-83
2021/05/03 01:10:46;;;;;;;2.63;2.42;;;;;;;;;;5119313;28;20403;-84
2021/05/03 01:13:12;;;;;;;2.85;2.55;;;;;;;;;;5120802;28;20027;-85
2021/05/03 01:15:38;;;;;;;2.67;2.25;;;;;;;;;;5120812;28;20027;-85
2021/05/03 01:21:45;;;;;;;3.10;2.80;;;;;;;;;;5120421;28;20076;-85
2021/05/03 01:24:11;;;;;;;3.03;2.67;;;;;;;;;;5120343;28;20107;-85
2021/05/03 01:26:37;;;;;;;3.15;2.75;;;;;;;;;;5119509;28;20012;-85
2021/05/03 01:29:03;;;;;;;4.68;2.90;;;;;;;;;;5119975;28;20046;-85
2021/05/03 01:31:29;;;;;;;3.72;2.55;;;;;;;;;;5119115;28;20031;-83
2021/05/03 01:33:55;;;;;;;3.00;2.70;;;;;;;;;;5119687;28;20024;-82
2021/05/03 01:36:22;;;;;;;2.75;2.50;;;;;;;;;;5118397;28;20027;-82
2021/05/03 01:38:48;;;;;;;2.95;2.65;;;;;;;;;;5119051;28;20051;-82
2021/05/03 01:41:14;;;;;;;3.13;2.78;;;;;;;;;;5117917;28;20115;-82
2021/05/03 01:43:41;;;;;;;3.17;2.28;;;;;;;;;;5119480;28;20044;-82
2021/05/03 01:46:07;;;;;;;3.55;2.58;;;;;;;;;;5119819;28;20019;-83
2021/05/03 01:48:34;;;;;;;3.05;2.47;;;;;;;;;;5119749;28;20129;-84
2021/05/03 01:51:00;;;;;;;4.18;2.72;;;;;;;;;;5118527;28;20030;-83
2021/05/03 01:53:26;;;;;;;3.13;2.83;;;;;;;;;;5119711;28;20036;-83
2021/05/03 01:55:53;;;;;;;6.63;2.85;;;;;;;;;;5119603;28;20024;-84
2021/05/03 01:58:19;;;;;;;3.42;2.90;;;;;;;;;;5118450;28;20030;-84
2021/05/03 02:00:45;;;;;;;4.03;2.50;;;;;;;;;;5119602;28;20102;-84
2021/05/03 02:03:40;;;;;;;4.95;2.70;;;;;;;;;;5099399;28;20028;-84
2021/05/03 02:06:06;;;;;;;3.08;2.78;;;;;;;;;;5098717;28;20113;-84
2021/05/03 02:08:33;;;;;;;3.63;3.10;;;;;;;;;;5098964;28;20472;-84
2021/05/03 02:10:59;;;;;;;2.55;2.35;;;;;;;;;;5099115;28;20039;-85
2021/05/03 02:13:26;;;;;;;3.40;3.10;;;;;;;;;;5108452;28;20401;-85
2021/05/03 02:15:52;;;;;;;3.72;2.53;;;;;;;;;;5108994;28;20028;-84
2021/05/03 02:18:19;;;;;;;3.65;2.55;;;;;;;;;;5098858;28;20016;-84
2021/05/03 02:20:45;;;;;;;4.10;2.70;;;;;;;;;;5097567;28;20028;-84
2021/05/03 02:23:12;;;;;;;3.03;2.60;;;;;;;;;;5097776;28;20118;-83
2021/05/03 02:25:38;;;;;;;3.17;2.88;;;;;;;;;;5101324;28;20012;-84
2021/05/03 02:28:04;;;;;;;3.70;2.85;;;;;;;;;;5103589;28;20024;-84
2021/05/03 02:30:30;;;;;;;4.25;2.90;;;;;;;;;;5098523;28;20056;-85
2021/05/03 02:32:56;;;;;;;3.28;2.90;;;;;;;;;;5098593;28;20020;-84
2021/05/03 02:35:24;;;;;;;3.97;3.22;;;;;;;;;;5098389;28;20122;-84
2021/05/03 02:37:53;;;;;;;3.63;3.15;;;;;;;;;;5097377;28;20059;-85
2021/05/03 02:40:19;;;;;;;3.42;3.10;;;;;;;;;;5098107;28;20392;-84
2021/05/03 02:42:46;;;;;;;3.40;3.10;;;;;;;;;;5080139;28;20077;-84
2021/05/03 02:45:13;;;;;;;3.33;2.88;;;;;;;;;;5098550;28;20031;-85
2021/05/03 02:47:39;;;;;;;3.30;3.00;;;;;;;;;;5098175;28;20050;-85
2021/05/03 02:50:05;;;;;;;3.70;3.33;;;;;;;;;;5098140;28;20035;-85
2021/05/03 02:52:31;;;;;;;3.45;3.00;;;;;;;;;;5100538;28;20024;-85
2021/05/03 02:54:57;;;;;;;5.00;2.90;;;;;;;;;;5110697;28;20101;-84
2021/05/03 02:57:24;;;;;;;5.63;3.20;;;;;;;;;;5097003;28;20024;-84
2021/05/03 02:59:50;;;;;;;7.60;6.72;;;;;;;;;;5097547;28;20134;-84
2021/05/03 03:02:16;;;;;;;3.83;3.42;;;;;;;;;;5097903;28;20095;-83
2021/05/03 03:04:42;;;;;;;5.70;3.05;;;;;;;;;;5097651;28;20024;-83
2021/05/03 03:07:08;;;;;;;4.88;4.38;;;;;;;;;;5097802;28;20016;-83
2021/05/03 03:09:35;;;;;;;5.75;5.25;;;;;;;;;;5097827;28;20032;-83
2021/05/03 03:12:01;;;;;;;4.53;4.13;;;;;;;;;;5097641;28;20424;-83
2021/05/03 03:14:27;;;;;;;3.50;3.20;;;;;;;;;;5097644;28;20123;-83
2021/05/03 03:16:53;;;;;;;3.60;3.20;;;;;;;;;;5097478;28;20027;-82
2021/05/03 03:19:19;;;;;;;3.72;3.35;;;;;;;;;;5097395;28;20042;-83
2021/05/03 03:21:45;;;;;;;4.65;3.63;;;;;;;;;;5097504;28;20031;-83
2021/05/03 03:24:12;;;;;;;3.70;3.20;;;;;;;;;;5096326;28;20016;-82
2021/05/03 03:26:38;;;;;;;3.65;3.28;;;;;;;;;;5097731;28;20368;-82
2021/05/03 03:29:04;;;;;;;3.28;2.67;;;;;;;;;;5097427;28;20028;-82
2021/05/03 03:31:31;;;;;;;7.47;4.32;;;;;;;;;;5096330;28;20024;-83
2021/05/03 03:33:57;;;;;;;7.05;5.30;;;;;;;;;;5097537;28;20047;-84
2021/05/03 03:36:24;;;;;;;7.72;5.25;;;;;;;;;;5097276;28;20064;-83
2021/05/03 03:38:50;;;;;;;10.23;5.75;;;;;;;;;;5095485;28;20123;-83
2021/05/03 03:41:16;;;;;;;7.18;4.97;;;;;;;;;;5097303;28;20024;-83
2021/05/03 03:43:42;;;;;;;7.03;5.05;;;;;;;;;;5097280;28;20031;-83
2021/05/03 03:46:08;;;;;;;6.75;4.90;;;;;;;;;;5097451;28;20344;-83
2021/05/03 03:48:34;;;;;;;7.00;5.03;;;;;;;;;;5097290;28;20313;-85
2021/05/03 03:51:00;;;;;;;7.15;4.93;;;;;;;;;;5096360;28;20051;-85
2021/05/03 03:53:26;;;;;;;7.35;5.35;;;;;;;;;;5097596;28;20027;-83
2021/05/03 03:55:52;;;;;;;9.02;5.15;;;;;;;;;;5097337;28;20110;-83
2021/05/03 03:58:18;;;;;;;7.15;5.35;;;;;;;;;;5097274;28;20042;-82
2021/05/03 04:00:44;;;;;;;7.03;4.80;;;;;;;;;;5097072;28;20024;-83
2021/05/03 04:03:11;;;;;;;5.18;4.50;;;;;;;;;;5097534;28;20028;-82
2021/05/03 04:08:16;;;;;;;4.53;3.85;;;;;;;;;;5097074;28;20355;-82
2021/05/03 04:10:58;;;;;;;4.25;3.85;;;;;;;;;;5095612;28;20429;-83
2021/05/03 04:24:28;;;;;;;5.00;4.43;;;;;;;;;;5058740;28;20390;-84
2021/05/03 04:27:02;;;;;;;7.22;4.10;;;;;;;;;;5076403;28;20114;-84
2021/05/03 04:29:28;;;;;;;4.28;3.70;;;;;;;;;;5062868;28;20064;-84
2021/05/03 04:31:54;;;;;;;5.35;4.00;;;;;;;;;;5070296;28;20032;-83
2021/05/03 04:34:20;;;;;;;5.35;4.18;;;;;;;;;;5061485;28;20033;-85
2021/05/03 04:36:46;;;;;;;5.18;4.10;;;;;;;;;;5078529;28;20033;-83
2021/05/03 04:39:13;;;;;;;5.20;4.70;;;;;;;;;;5078105;28;20048;-84
2021/05/03 04:41:39;;;;;;;5.03;4.50;;;;;;;;;;5078363;28;20024;-83
2021/05/03 04:44:06;;;;;;;4.40;4.00;;;;;;;;;;5078373;28;20059;-82
2021/05/03 04:46:32;;;;;;;4.93;4.35;;;;;;;;;;5078203;28;20064;-82
2021/05/03 04:48:58;;;;;;;5.25;4.65;;;;;;;;;;5077920;28;20402;-82
2021/05/03 04:51:24;;;;;;;5.30;4.30;;;;;;;;;;5078176;28;20051;-82
2021/05/03 04:53:50;;;;;;;4.88;4.38;;;;;;;;;;5077833;28;20032;-82
2021/05/03 04:56:16;;;;;;;5.80;4.22;;;;;;;;;;5078148;28;20035;-83
2021/05/03 04:58:42;;;;;;;4.85;4.28;;;;;;;;;;5098866;28;20329;-84
2021/05/03 05:01:08;;;;;;;4.63;4.22;;;;;;;;;;5120561;28;20321;-83
2021/05/03 05:06:37;;;;;;;5.88;5.20;;;;;;;;;;5120434;28;20035;-83
2021/05/03 05:09:04;;;;;;;6.15;4.60;;;;;;;;;;5120022;28;20364;-84
2021/05/03 05:11:34;;;;;;;5.95;5.15;;;;;;;;;;5120946;28;20077;-84
2021/05/03 05:14:00;;;;;;;5.50;5.00;;;;;;;;;;5120513;28;20024;-83
2021/05/03 05:16:26;;;;;;;7.05;5.57;;;;;;;;;;5120239;28;20028;-84
2021/05/03 05:18:52;;;;;;;6.20;5.60;;;;;;;;;;5120275;28;20035;-84
2021/05/03 05:21:18;;;;;;;6.30;5.57;;;;;;;;;;5120135;28;20040;-82
2021/05/03 05:23:44;;;;;;;5.97;5.38;;;;;;;;;;5119795;28;20015;-83
2021/05/03 05:26:11;;;;;;;7.43;6.18;;;;;;;;;;5119893;28;20060;-83
2021/05/03 05:28:37;;;;;;;6.38;5.75;;;;;;;;;;5119939;28;20016;-83
2021/05/03 05:43:31;;;;;;;7.40;6.60;;;;;;;;;;5094988;27;20416;-84
2021/05/03 05:45:57;;;;;;;7.50;6.57;;;;;;;;;;5090386;28;20123;-84
2021/05/03 05:48:42;;;;;;;8.57;7.28;;;;;;;;;;5074623;28;20028;-84
2021/05/03 05:51:08;;;;;;;10.35;8.07;;;;;;;;;;5074235;28;20017;-84
2021/05/03 05:53:34;;;;;;;8.98;7.57;;;;;;;;;;5074524;28;20460;-84
2021/05/03 05:56:01;;;;;;;9.13;7.50;;;;;;;;;;5078202;28;20055;-84
2021/05/03 05:58:31;;;;;;;9.85;7.47;;;;;;;;;;5093764;28;20052;-84
2021/05/03 06:00:57;;;;;;;9.63;7.47;;;;;;;;;;5094659;28;20103;-84
2021/05/03 06:06:26;;;;;;;8.43;6.70;;;;;;;;;;5076431;28;20036;-84
2021/05/03 06:08:53;;;;;;;8.35;7.45;;;;;;;;;;5074277;28;20017;-84
2021/05/03 06:24:06;;;;;;;7.25;6.55;;;;;;;;;;5135892;27;20873;-84
2021/05/03 06:26:32;;;;;;;8.80;7.28;;;;;;;;;;5135631;28;20031;-82
2021/05/03 06:28:58;;;;;;;7.65;6.60;;;;;;;;;;5135168;28;20022;-83
2021/05/03 06:31:24;;;;;;;8.27;5.95;;;;;;;;;;5135484;28;20024;-83
2021/05/03 06:33:50;;;;;;;8.32;6.32;;;;;;;;;;5135559;28;20016;-83
2021/05/03 06:36:16;;;;;;;6.88;5.60;;;;;;;;;;5117157;28;20023;-83
2021/05/03 06:38:42;;;;;;;6.95;5.45;;;;;;;;;;5116732;28;20122;-83
2021/05/03 06:41:09;;;;;;;9.18;5.65;;;;;;;;;;5134865;28;20435;-82
2021/05/03 06:43:55;;;;;;;8.68;6.28;;;;;;;;;;5134801;28;20038;-83
2021/05/03 06:46:21;;;;;;;6.28;5.68;;;;;;;;;;5134888;28;20019;-84
2021/05/03 06:48:47;;;;;;;7.63;5.53;;;;;;;;;;5116979;28;20670;-82
2021/05/03 06:51:13;;;;;;;6.93;5.70;;;;;;;;;;5117096;28;20114;-86
2021/05/03 06:53:39;;;;;;;7.78;6.68;;;;;;;;;;5116938;28;20030;-84
2021/05/03 06:56:05;;;;;;;7.50;6.18;;;;;;;;;;5134982;28;20030;-84
2021/05/03 06:58:31;;;;;;;10.48;6.40;;;;;;;;;;5134777;28;20024;-84
2021/05/03 07:00:57;;;;;;;5.95;5.35;;;;;;;;;;5135026;28;20015;-84
2021/05/03 07:03:23;;;;;;;6.10;4.85;;;;;;;;;;5135182;28;20430;-84
2021/05/03 07:05:49;;;;;;;6.65;4.97;;;;;;;;;;5116470;28;20039;-84
2021/05/03 07:08:18;;;;;;;6.07;4.80;;;;;;;;;;5134901;28;20030;-84
2021/05/03 07:10:45;;;;;;;6.90;4.70;;;;;;;;;;5116626;28;20464;-83
2021/05/03 07:13:12;;;;;;;5.57;4.28;;;;;;;;;;5134498;28;20088;-83
2021/05/03 07:15:38;;;;;;;6.20;4.45;;;;;;;;;;5116296;28;20038;-82
2021/05/03 07:18:05;;;;;;;5.65;4.55;;;;;;;;;;5120841;28;20122;-82
2021/05/03 07:20:31;;;;;;;6.32;4.88;;;;;;;;;;5134634;28;20064;-84
2021/05/03 07:22:57;;;;;;;6.90;4.75;;;;;;;;;;5131433;28;20146;-84
2021/05/03 07:25:23;;;;;;;6.28;4.40;;;;;;;;;;5120685;28;20436;-83
2021/05/03 07:27:49;;;;;;;6.32;4.90;;;;;;;;;;5121111;28;20336;-82
2021/05/03 07:30:15;;;;;;;5.53;4.70;;;;;;;;;;5120756;28;20024;-83
2021/05/03 07:32:41;;;;;;;7.10;5.10;;;;;;;;;;5119842;28;20083;-82
2021/05/03 07:35:09;;;;;;;7.00;5.15;;;;;;;;;;5120978;28;20106;-83
2021/05/03 07:37:35;;;;;;;5.82;5.22;;;;;;;;;;5120541;28;20023;-83
2021/05/03 07:40:02;;;;;;;5.95;5.35;;;;;;;;;;5119609;28;20020;-83
2021/05/03 07:42:28;;;;;;;5.72;5.10;;;;;;;;;;5120612;28;20160;-82
2021/05/03 07:44:54;;;;;;;7.85;5.45;;;;;;;;;;5119516;28;20023;-83
2021/05/03 07:47:20;;;;;;;7.43;6.07;;;;;;;;;;5119474;28;20033;-82
2021/05/03 07:49:46;;;;;;;6.53;5.63;;;;;;;;;;5120248;28;20057;-82
2021/05/03 07:52:12;;;;;;;6.28;5.35;;;;;;;;;;5118876;28;20036;-82
2021/05/03 07:54:38;;;;;;;8.10;5.28;;;;;;;;;;5120424;28;20047;-83
2021/05/03 07:57:04;;;;;;;7.68;5.68;;;;;;;;;;5120416;28;20053;-82
2021/05/03 07:59:31;;;;;;;6.95;5.00;;;;;;;;;;5112079;28;20066;-83
2021/05/03 08:01:57;;;;;;;6.05;4.57;;;;;;;;;;5104242;28;20034;-83
2021/05/03 08:04:23;;;;;;;5.88;4.35;;;;;;;;;;5099749;28;20028;-83
2021/05/03 08:06:52;;;;;;;5.72;4.50;;;;;;;;;;5099714;28;20119;-83
2021/05/03 08:09:18;;;;;;;7.20;4.63;;;;;;;;;;5099608;28;20099;-83
2021/05/03 08:11:45;;;;;;;7.85;4.13;;;;;;;;;;5106504;28;20030;-83
2021/05/03 08:14:14;;;;;;;5.63;4.35;;;;;;;;;;5113700;28;20020;-83
2021/05/03 08:16:40;;;;;;;5.82;4.47;;;;;;;;;;5119970;28;20020;-83
2021/05/03 08:19:07;;;;;;;9.45;4.65;;;;;;;;;;5119868;28;20020;-83
2021/05/03 08:21:33;;;;;;;10.35;4.53;;;;;;;;;;5119598;28;20046;-83
2021/05/03 08:23:59;;;;;;;3.75;3.35;;;;;;;;;;5119583;28;20036;-83
2021/05/03 08:26:25;;;;;;;5.43;4.03;;;;;;;;;;5118709;28;20020;-83
2021/05/03 08:28:51;;;;;;;6.43;4.03;;;;;;;;;;5119888;28;20024;-82
2021/05/03 08:31:17;;;;;;;6.40;4.95;;;;;;;;;;5119665;28;20054;-83
2021/05/03 08:33:43;;;;;;;7.28;4.45;;;;;;;;;;5119664;28;20020;-82
2021/05/03 08:36:09;;;;;;;6.20;5.03;;;;;;;;;;5117178;27;20044;-83
2021/05/03 08:38:36;;;;;;;11.00;6.55;;;;;;;;;;5119530;28;20107;-83
2021/05/03 08:41:03;;;;;;;12.02;6.05;;;;;;;;;;5118600;28;20019;-83
2021/05/03 08:43:31;;;;;;;9.70;6.28;;;;;;;;;;5119428;28;20031;-84
2021/05/03 08:45:58;;;;;;;4.88;4.38;;;;;;;;;;5119682;28;20031;-84
2021/05/03 08:48:35;;;;;;;4.85;4.00;;;;;;;;;;5119416;28;20037;-83
2021/05/03 08:56:46;;;;;;;6.97;3.90;;;;;;;;;;5056929;28;20075;-83
2021/05/03 08:59:13;;;;;;;10.90;4.90;;;;;;;;;;5056867;28;20340;-84
2021/05/03 09:01:42;;;;;;;7.32;4.30;;;;;;;;;;5056545;28;20417;-83
2021/05/03 09:04:09;;;;;;;6.03;3.58;;;;;;;;;;5039435;28;20041;-82
2021/05/03 09:06:35;;;;;;;6.03;4.03;;;;;;;;;;5056499;28;20037;-83
2021/05/03 09:09:03;;;;;;;4.63;3.50;;;;;;;;;;5039534;28;20025;-83
2021/05/03 09:11:29;;;;;;;6.00;3.75;;;;;;;;;;5056341;28;20024;-83
2021/05/03 09:14:06;;;;;;;6.68;4.55;;;;;;;;;;5056282;28;20029;-82
2021/05/03 09:16:32;;;;;;;6.28;3.85;;;;;;;;;;5056188;28;20354;-81
2021/05/03 09:19:00;;;;;;;5.10;3.78;;;;;;;;;;5039203;28;20063;-82
2021/05/03 09:21:31;;;;;;;4.93;3.70;;;;;;;;;;5038971;28;20029;-82
2021/05/03 09:24:20;;;;;;;5.65;4.30;;;;;;;;;;5039378;28;20152;-82
2021/05/03 09:26:49;;;;;;;6.55;4.35;;;;;;;;;;5055856;28;20462;-82
2021/05/03 09:29:45;;;;;;;8.23;4.72;;;;;;;;;;5078170;28;20530;-83
2021/05/03 09:32:22;;;;;;;13.93;6.18;;;;;;;;;;5019307;28;20033;-83
2021/05/03 09:34:52;;;;;;;7.15;4.47;;;;;;;;;;5036163;28;20378;-82
2021/05/03 09:37:21;;;;;;;11.02;5.57;;;;;;;;;;5019448;28;20033;-82
2021/05/03 09:39:54;;;;;;;18.15;8.85;;;;;;;;;;5036069;28;20021;-87
2021/05/03 09:42:20;;;;;;;15.30;8.63;;;;;;;;;;5036349;28;20116;-86
2021/05/03 09:45:02;;;;;;;13.07;6.53;;;;;;;;;;5036206;28;20026;-87
2021/05/03 09:47:28;;;;;;;8.65;5.18;;;;;;;;;;5019559;28;20033;-85
2021/05/03 09:49:55;;;;;;;6.63;4.10;;;;;;;;;;5036062;28;20033;-81
2021/05/03 09:52:21;;;;;;;5.68;4.10;;;;;;;;;;5012600;28;20033;-83
2021/05/03 09:54:47;;;;;;;4.40;3.45;;;;;;;;;;5035846;28;20123;-83
2021/05/03 09:57:14;;;;;;;6.45;3.75;;;;;;;;;;5035957;28;20022;-82
2021/05/03 09:59:52;;;;;;;9.65;3.47;;;;;;;;;;5035778;28;20021;-83
2021/05/03 10:02:26;;;;;;;7.15;3.42;;;;;;;;;;5027726;28;20040;-83
2021/05/03 10:07:30;;;;;;;4.85;3.60;;;;;;;;;;5039928;28;20108;-85
2021/05/03 10:10:06;;;;;;;5.72;3.42;;;;;;;;;;5098529;28;20524;-79
2021/05/03 10:12:33;;;;;;;3.25;2.58;;;;;;;;;;5115950;28;20040;-77
2021/05/03 10:15:01;;;;;;;8.18;3.42;;;;;;;;;;5117515;28;20460;-78
2021/05/03 10:17:28;;;;;;;7.38;3.20;;;;;;;;;;5117487;28;20134;-78
2021/05/03 10:19:56;;;;;;;5.35;3.10;;;;;;;;;;5116306;28;20034;-78
2021/05/03 10:22:22;;;;;;;8.10;4.28;;;;;;;;;;5112912;28;20044;-78
2021/05/03 10:24:56;;;;;;;7.60;4.47;;;;;;;;;;5108442;28;20024;-78
2021/05/03 10:27:23;;;;;;;4.97;3.08;;;;;;;;;;5115945;28;20533;-78
2021/05/03 10:29:50;;;;;;;5.22;2.45;;;;;;;;;;5117033;28;20042;-78
2021/05/03 10:32:23;;;;;;;4.40;3.33;;;;;;;;;;5117113;28;20027;-78
2021/05/03 10:34:54;;;;;;;9.10;4.45;;;;;;;;;;5117200;28;20012;-78
2021/05/03 10:37:32;;;;;;;6.75;4.60;;;;;;;;;;5117295;28;20097;-78
2021/05/03 10:40:03;;;;;;;4.38;3.60;;;;;;;;;;5117352;28;20040;-78
2021/05/03 10:42:30;;;;;;;7.40;3.40;;;;;;;;;;5117167;28;20020;-78
2021/05/03 10:45:11;;;;;;;4.80;3.40;;;;;;;;;;5117028;28;20027;-78
2021/05/03 10:50:44;;;;;;;4.38;3.67;;;;;;;;;;5117074;28;20298;-78
2021/05/03 10:56:04;;;;;;;5.35;3.90;;;;;;;;;;5034826;28;20103;-78
2021/05/03 10:58:30;;;;;;;5.70;4.15;;;;;;;;;;5018647;28;20038;-77
2021/05/03 11:01:08;;;;;;;7.13;4.60;;;;;;;;;;5038492;28;20022;-78
2021/05/03 11:03:52;;;;;;;4.60;3.72;;;;;;;;;;5001960;28;20037;-78
2021/05/03 11:06:38;;;;;;;8.20;4.63;;;;;;;;;;5018570;28;20092;-77
2021/05/03 11:09:41;;;;;;;7.45;3.80;;;;;;;;;;5002197;28;20025;-78
2021/05/03 11:12:09;;;;;;;;;;;;;;;;;;4960438;28;20035;-77
2021/05/03 11:14:36;;;;;;;4.63;3.03;;;;;;;;;;4960017;29;20332;-78
2021/05/03 11:17:06;;;;;;;4.68;3.47;;;;;;;;;;4959790;29;20110;-78
2021/05/03 11:22:25;;;;;;;6.07;2.80;;;;;;;;;;4921315;29;20048;-78
2021/05/03 11:24:58;;;;;;;4.35;2.83;;;;;;;;;;4921486;29;20062;-78
2021/05/03 11:33:06;;;;;;;4.15;2.13;;;;;;;;;;4998314;28;20401;-78
2021/05/03 11:40:44;;;;;;;5.50;2.60;;;;;;;;;;4989876;28;20090;-78
2021/05/03 11:46:09;;;;;;;4.07;2.38;;;;;;;;;;5029353;28;20115;-77
2021/05/03 11:48:35;;;;;;;3.75;2.25;;;;;;;;;;5057238;28;20330;-77
2021/05/03 11:51:05;;;;;;;8.35;2.25;;;;;;;;;;5057443;28;20066;-78
2021/05/03 11:53:35;;;;;;;4.35;2.47;;;;;;;;;;5057270;28;20045;-82
2021/05/03 11:56:17;;;;;;;17.98;10.07;;;;;;;;;;5055913;28;20180;-78
2021/05/03 11:58:45;;;;;;;10.35;7.03;;;;;;;;;;5070666;28;20063;-78
2021/05/03 12:01:17;;;;;;;5.95;3.15;;;;;;;;;;5119757;28;20074;-77
2021/05/03 12:03:47;;;;;;;4.13;2.75;;;;;;;;;;5119753;28;20469;-78
2021/05/03 12:06:30;;;;;;;4.10;3.40;;;;;;;;;;5119563;28;20031;-77
2021/05/03 12:09:05;;;;;;;6.15;4.43;;;;;;;;;;5119678;28;20059;-78
2021/05/03 12:11:31;;;;;;;4.85;2.17;;;;;;;;;;5118607;28;20027;-78
2021/05/03 12:13:57;;;;;;;2.80;2.50;;;;;;;;;;5119543;28;20020;-77
2021/05/03 12:16:33;;;;;;;10.00;5.13;;;;;;;;;;5119402;28;20317;-77
2021/05/03 12:18:59;;;;;;;60.47;45.92;;;;;;;;;;5119404;28;20024;-77
2021/05/03 12:21:25;;;;;;;5.93;3.53;;;;;;;;;;5119200;28;20024;-77
2021/05/03 12:23:52;;;;;;;4.13;2.85;;;;;;;;;;5118137;28;20047;-76
2021/05/03 12:26:18;;;;;;;8.32;3.50;;;;;;;;;;5117856;28;20035;-76
2021/05/03 12:28:44;;;;;;;6.00;2.78;;;;;;;;;;5119375;28;20070;-76
2021/05/03 12:31:10;;;;;;;6.75;2.90;;;;;;;;;;5119420;28;20020;-76
2021/05/03 12:33:37;;;;;;;3.38;2.53;;;;;;;;;;5119063;28;20069;-76
2021/05/03 12:36:08;;;;;;;2.92;2.45;;;;;;;;;;5119000;28;20344;-76
2021/05/03 12:38:34;;;;;;;3.40;2.42;;;;;;;;;;5118875;28;20035;-75
2021/05/03 12:41:01;;;;;;;5.90;2.65;;;;;;;;;;5118826;28;20034;-76
2021/05/03 12:43:34;;;;;;;6.20;3.30;;;;;;;;;;5119019;28;20099;-76
2021/05/03 12:48:50;;;;;;;6.80;2.70;;;;;;;;;;5118959;28;20037;-77
2021/05/03 12:54:35;;;;;;;5.50;5.00;;;;;;;;;;5118529;28;20031;-78
2021/05/03 12:59:51;;;;;;;6.35;3.47;;;;;;;;;;5118924;28;20028;-84
2021/05/03 13:05:27;;;;;;;5.28;3.80;;;;;;;;;;5118946;28;20030;-78
2021/05/03 13:24:58;;;;;;;6.43;4.35;;;;;;;;;;5118244;28;20077;-79
2021/05/03 13:30:00;;;;;;;6.97;3.80;;;;;;;;;;5118106;28;20034;-79
2021/05/03 13:32:28;;;;;;;5.63;3.60;;;;;;;;;;5118114;28;20050;-79
2021/05/03 13:34:54;;;;;;;5.10;3.53;;;;;;;;;;5118184;28;20023;-78
2021/05/03 13:37:21;;;;;;;4.18;3.25;;;;;;;;;;5117960;28;20024;-78
2021/05/03 13:39:47;;;;;;;7.35;3.30;;;;;;;;;;5118714;28;20332;-79
2021/05/03 13:42:15;;;;;;;6.22;3.60;;;;;;;;;;5117965;28;20035;-78
2021/05/03 13:44:41;;;;;;;4.10;3.20;;;;;;;;;;5117726;28;20032;-79
2021/05/03 13:47:07;;;;;;;5.00;3.97;;;;;;;;;;5117015;28;20058;-78
2021/05/03 13:49:34;;;;;;;6.13;3.40;;;;;;;;;;5117986;28;20070;-79
2021/05/03 13:52:04;;;;;;;5.78;3.88;;;;;;;;;;5117845;28;20027;-78
2021/05/03 13:54:30;;;;;;;4.85;3.70;;;;;;;;;;5117688;28;20406;-79
2021/05/03 13:57:00;;;;;;;3.67;3.20;;;;;;;;;;5116269;28;20032;-79
2021/05/03 13:59:26;;;;;;;4.32;3.08;;;;;;;;;;5117903;28;20023;-79
2021/05/03 14:01:52;;;;;;;5.13;3.85;;;;;;;;;;5118033;28;20019;-79
2021/05/03 14:04:19;;;;;;;5.10;3.60;;;;;;;;;;5117423;28;20050;-79
2021/05/03 14:06:48;;;;;;;4.63;4.03;;;;;;;;;;5117160;28;20034;-78
2021/05/03 14:09:17;;;;;;;5.50;3.80;;;;;;;;;;5117494;28;20020;-79
2021/05/03 14:11:44;;;;;;;5.60;3.88;;;;;;;;;;5116223;28;20359;-78
2021/05/03 14:14:10;;;;;;;4.18;3.47;;;;;;;;;;5117601;28;20058;-79
2021/05/03 14:16:38;;;;;;;4.97;3.28;;;;;;;;;;5117310;28;20020;-79
2021/05/03 14:19:08;;;;;;;6.45;3.92;;;;;;;;;;5117375;28;20016;-79
2021/05/03 14:21:35;;;;;;;9.68;4.75;;;;;;;;;;5117375;27;20027;-79
2021/05/03 14:24:01;;;;;;;9.30;4.72;;;;;;;;;;5117218;28;20160;-79
2021/05/03 14:26:28;;;;;;;7.82;4.63;;;;;;;;;;5116362;28;20052;-78
2021/05/03 14:29:10;;;;;;;9.20;4.25;;;;;;;;;;5117370;28;20409;-79
2021/05/03 14:31:47;;;;;;;6.63;4.30;;;;;;;;;;5117300;28;20019;-78
2021/05/03 14:36:45;;;;;;;23.73;14.48;;;;;;;;;;5121748;28;20490;-79
2021/05/03 14:39:12;;;;;;;33.92;18.50;;;;;;;;;;5121578;28;20019;-78
2021/05/03 14:41:38;;;;;;;22.55;14.82;;;;;;;;;;5120433;28;20372;-79
2021/05/03 14:44:05;;;;;;;51.47;21.95;;;;;;;;;;5117924;28;20398;-78
2021/05/03 14:46:35;;;;;;;10.98;6.35;;;;;;;;;;5104376;28;20028;-78
2021/05/03 14:51:42;;;;;;;7.45;4.45;;;;;;;;;;5121168;28;20066;-78
2021/05/03 14:56:55;;;;;;;10.45;6.30;;;;;;;;;;5121502;28;20070;-78
2021/05/03 14:59:21;;;;;;;5.15;3.35;;;;;;;;;;5121114;28;20037;-78
2021/05/03 15:01:47;;;;;;;3.40;2.63;;;;;;;;;;5119972;28;20064;-78
2021/05/03 15:04:13;;;;;;;3.72;2.83;;;;;;;;;;5119427;28;20028;-78
2021/05/03 15:06:41;;;;;;;5.28;2.70;;;;;;;;;;5121050;28;20026;-78
2021/05/03 15:09:13;;;;;;;9.80;4.55;;;;;;;;;;5121001;28;20028;-78
2021/05/03 15:11:39;;;;;;;5.53;2.90;;;;;;;;;;5119114;28;20039;-78
2021/05/03 15:14:12;;;;;;;3.28;2.90;;;;;;;;;;5119334;28;20031;-78
2021/05/03 15:16:48;;;;;;;6.75;3.60;;;;;;;;;;5120868;28;20028;-79
2021/05/03 15:19:32;;;;;;;6.30;4.28;;;;;;;;;;5119613;28;20405;-78
2021/05/03 15:21:58;;;;;;;10.68;4.05;;;;;;;;;;5118910;28;20361;-78
2021/05/03 15:24:24;;;;;;;5.10;3.22;;;;;;;;;;5120490;28;20019;-78
2021/05/03 15:26:58;;;;;;;6.50;2.92;;;;;;;;;;5120478;28;20115;-79
2021/05/03 15:29:59;;;;;;;6.15;3.83;;;;;;;;;;5120467;28;20325;-78
2021/05/03 15:35:12;;;;;;;7.30;3.67;;;;;;;;;;5057867;28;20025;-78
2021/05/03 15:37:38;;;;;;;17.15;4.57;;;;;;;;;;5057796;28;20033;-78
2021/05/03 15:40:05;;;;;;;7.53;3.17;;;;;;;;;;5057777;28;20056;-78
2021/05/03 15:42:31;;;;;;;3.72;3.35;;;;;;;;;;5057798;28;20040;-78
2021/05/03 15:44:57;;;;;;;8.85;4.47;;;;;;;;;;5057160;28;20033;-78
2021/05/03 15:47:23;;;;;;;19.67;10.60;;;;;;;;;;5041076;28;20037;-78
2021/05/03 15:49:49;;;;;;;7.40;3.33;;;;;;;;;;5057497;28;20080;-78
2021/05/03 15:52:15;;;;;;;4.15;2.80;;;;;;;;;;5057224;28;20049;-78
2021/05/03 15:54:42;;;;;;;4.50;3.15;;;;;;;;;;5057523;28;20021;-78
2021/05/03 15:57:08;;;;;;;3.75;2.97;;;;;;;;;;5040574;28;20112;-78
2021/05/03 15:59:34;;;;;;;4.18;2.40;;;;;;;;;;5057516;28;20048;-79
2021/05/03 16:02:02;;;;;;;7.78;4.35;;;;;;;;;;5057356;28;20040;-78
2021/05/03 16:04:30;;;;;;;5.88;3.20;;;;;;;;;;5057164;28;20043;-76
2021/05/03 16:06:56;;;;;;;35.88;13.57;;;;;;;;;;5041055;28;20082;-78
2021/05/03 16:09:22;;;;;;;14.05;6.13;;;;;;;;;;5040487;28;20025;-78
2021/05/03 16:11:48;;;;;;;43.42;17.70;;;;;;;;;;5076967;28;20028;-78
2021/05/03 16:14:14;;;;;;;20.45;9.10;;;;;;;;;;5121884;27;20091;-78
2021/05/03 16:16:41;;;;;;;15.82;8.95;;;;;;;;;;5126699;27;20020;-78
2021/05/03 16:19:07;;;;;;;21.77;10.60;;;;;;;;;;5119287;28;20024;-77
2021/05/03 16:21:34;;;;;;;15.27;7.03;;;;;;;;;;5119705;28;20031;-78
2021/05/03 16:24:00;;;;;;;33.25;13.98;;;;;;;;;;5119193;28;20122;-78
2021/05/03 16:26:26;;;;;;;10.27;4.95;;;;;;;;;;5119120;28;20312;-78
2021/05/03 16:28:53;;;;;;;5.70;4.60;;;;;;;;;;5119308;28;20042;-78
2021/05/03 16:31:20;;;;;;;4.32;3.13;;;;;;;;;;5119233;28;20113;-78
2021/05/03 16:33:46;;;;;;;10.20;6.80;;;;;;;;;;5119278;28;20032;-78
2021/05/03 16:36:12;;;;;;;6.05;3.22;;;;;;;;;;5117458;28;20030;-78
2021/05/03 16:38:38;;;;;;;7.68;3.30;;;;;;;;;;5119104;28;20409;-78
2021/05/03 16:41:04;;;;;;;4.63;3.45;;;;;;;;;;5119105;28;20392;-78
2021/05/03 16:43:32;;;;;;;9.68;3.72;;;;;;;;;;5119094;28;20046;-77
2021/05/03 16:45:58;;;;;;;5.05;3.10;;;;;;;;;;5119238;28;20028;-77
2021/05/03 16:48:24;;;;;;;4.50;3.22;;;;;;;;;;5118964;28;20020;-77